Time;durP1;ratioP1;P1;durP2;ratioP2;P2;SDS_P1;SDS_P2;PMS_P1;PMS_P2;Temp;Humidity;BMP_temperature;BMP_pressure;BME280_temperature;BME280_humidity;BME280_pressure;Samples;Min_cycle;Max_cycle;Signal;HPM_P1;HPM_P2
2021/09/06 00:01:11;;;;;;;19.70;15.82;;;12.90;99.90;;;;;;4954151;28;20126;-72
2021/09/06 00:03:37;;;;;;;19.33;15.20;;;12.80;99.90;;;;;;4952346;29;20065;-73
2021/09/06 00:06:03;;;;;;;22.65;16.27;;;12.80;99.90;;;;;;4953450;28;20075;-73
2021/09/06 00:08:28;;;;;;;18.38;15.05;;;12.80;99.90;;;;;;4953382;28;20035;-72
2021/09/06 00:11:03;;;;;;;20.83;15.77;;;12.80;99.90;;;;;;4954021;28;20023;-72
2021/09/06 00:13:29;;;;;;;16.65;14.57;;;12.80;99.90;;;;;;4952913;29;20027;-73
2021/09/06 00:15:55;;;;;;;19.02;15.43;;;12.80;99.90;;;;;;4944198;28;20031;-73
2021/09/06 00:18:20;;;;;;;18.42;15.82;;;12.70;99.90;;;;;;4933370;29;20078;-73
2021/09/06 00:20:46;;;;;;;19.58;15.18;;;12.70;99.90;;;;;;4934525;29;20434;-73
2021/09/06 00:23:12;;;;;;;20.90;16.25;;;12.70;99.90;;;;;;4933183;29;20028;-72
2021/09/06 00:25:39;;;;;;;19.60;17.17;;;12.70;99.90;;;;;;4933981;29;20016;-73
2021/09/06 00:28:05;;;;;;;20.65;16.85;;;12.60;99.90;;;;;;4938188;29;20043;-73
2021/09/06 00:30:30;;;;;;;20.00;17.13;;;12.60;99.90;;;;;;4937064;29;20028;-74
2021/09/06 00:32:56;;;;;;;22.50;17.10;;;12.60;99.90;;;;;;4937088;29;20473;-73
2021/09/06 00:35:21;;;;;;;18.23;15.90;;;12.60;99.90;;;;;;4937147;29;20028;-72
2021/09/06 00:37:47;;;;;;;20.75;16.25;;;12.60;99.90;;;;;;4936858;29;20041;-74
2021/09/06 00:40:13;;;;;;;18.33;15.32;;;12.60;99.90;;;;;;4938677;29;20032;-73
2021/09/06 00:42:39;;;;;;;19.20;16.35;;;12.60;99.90;;;;;;4945714;29;20023;-73
2021/09/06 00:45:06;;;;;;;18.80;16.13;;;12.60;99.90;;;;;;4956303;28;20031;-74
2021/09/06 00:47:34;;;;;;;21.67;16.85;;;12.50;99.90;;;;;;4945292;29;20035;-76
2021/09/06 00:50:02;;;;;;;21.38;16.92;;;12.50;99.90;;;;;;4936574;29;20034;-74
2021/09/06 00:52:28;;;;;;;20.40;16.83;;;12.50;99.90;;;;;;4936571;29;20031;-76
2021/09/06 00:54:53;;;;;;;20.38;17.00;;;12.50;99.90;;;;;;4937748;29;20069;-74
2021/09/06 00:57:19;;;;;;;19.35;16.70;;;12.50;99.90;;;;;;4938463;29;20063;-73
2021/09/06 00:59:45;;;;;;;22.63;17.30;;;12.40;99.90;;;;;;4947939;29;20066;-73
2021/09/06 01:02:10;;;;;;;22.83;16.40;;;12.40;99.90;;;;;;4955731;29;20479;-73
2021/09/06 01:04:36;;;;;;;22.50;17.15;;;12.40;99.90;;;;;;4955691;29;20517;-73
2021/09/06 01:07:02;;;;;;;20.67;17.20;;;12.40;99.90;;;;;;4955095;29;20126;-73
2021/09/06 01:09:27;;;;;;;20.80;17.23;;;12.40;99.90;;;;;;4956173;29;20071;-73
2021/09/06 01:11:53;;;;;;;24.55;16.95;;;12.40;99.90;;;;;;4954889;29;20106;-74
2021/09/06 01:14:19;;;;;;;24.10;17.67;;;12.40;99.90;;;;;;4957032;28;20027;-73
2021/09/06 01:16:46;;;;;;;26.33;18.00;;;12.40;99.90;;;;;;4956553;28;20019;-73
2021/09/06 01:19:11;;;;;;;19.45;16.55;;;12.30;99.90;;;;;;4955376;29;20046;-74
2021/09/06 01:21:38;;;;;;;21.45;18.70;;;12.30;99.90;;;;;;4955743;29;20031;-74
2021/09/06 01:24:04;;;;;;;20.95;17.48;;;12.30;99.90;;;;;;4955494;29;20024;-73
2021/09/06 01:26:29;;;;;;;23.17;18.17;;;12.30;99.90;;;;;;4955982;28;20465;-75
2021/09/06 01:28:55;;;;;;;19.70;16.33;;;12.20;99.90;;;;;;4955270;29;20069;-74
2021/09/06 01:31:22;;;;;;;22.10;16.80;;;12.20;99.90;;;;;;4955681;29;20468;-73
2021/09/06 01:33:48;;;;;;;21.58;18.35;;;12.20;99.90;;;;;;4955793;28;20480;-73
2021/09/06 01:36:14;;;;;;;20.88;17.30;;;12.20;99.90;;;;;;4943641;29;20082;-73
2021/09/06 01:38:39;;;;;;;22.25;17.25;;;12.20;99.90;;;;;;4936415;29;20062;-73
2021/09/06 01:41:05;;;;;;;22.80;18.52;;;12.20;99.90;;;;;;4935090;29;20032;-73
2021/09/06 01:43:30;;;;;;;19.25;16.95;;;12.10;99.90;;;;;;4943303;29;20170;-73
2021/09/06 01:45:56;;;;;;;21.20;17.70;;;12.10;99.90;;;;;;4948654;29;20038;-73
2021/09/06 01:48:21;;;;;;;23.73;19.20;;;12.10;99.90;;;;;;4943020;29;20042;-73
2021/09/06 01:50:47;;;;;;;23.38;18.10;;;12.10;99.90;;;;;;4948309;28;20472;-73
2021/09/06 01:53:12;;;;;;;21.67;17.42;;;12.00;99.90;;;;;;4937132;29;20028;-73
2021/09/06 01:55:38;;;;;;;21.23;17.48;;;12.00;99.90;;;;;;4945212;29;20031;-74
2021/09/06 01:58:03;;;;;;;21.58;17.80;;;12.00;99.90;;;;;;4943342;29;20031;-74
2021/09/06 02:00:29;;;;;;;22.83;18.40;;;12.00;99.90;;;;;;4934167;29;20035;-73
2021/09/06 02:02:54;;;;;;;20.08;16.60;;;12.00;99.90;;;;;;4933919;29;20031;-75
2021/09/06 02:05:20;;;;;;;20.00;16.70;;;12.00;99.90;;;;;;4934983;29;20048;-74
2021/09/06 02:07:45;;;;;;;20.63;17.15;;;12.00;99.90;;;;;;4936418;29;20036;-74
2021/09/06 02:10:11;;;;;;;22.33;18.02;;;11.90;99.90;;;;;;4936246;29;20036;-73
2021/09/06 02:12:36;;;;;;;22.13;18.10;;;11.90;99.90;;;;;;4935769;29;20032;-73
2021/09/06 02:15:03;;;;;;;21.63;17.92;;;11.90;99.90;;;;;;4935762;29;20059;-73
2021/09/06 02:17:28;;;;;;;23.10;17.75;;;11.90;99.90;;;;;;4935536;29;20113;-73
2021/09/06 02:19:54;;;;;;;22.48;18.25;;;11.90;99.90;;;;;;4934807;29;20112;-73
2021/09/06 02:22:20;;;;;;;20.52;16.98;;;11.80;99.90;;;;;;4934871;29;20031;-74
2021/09/06 02:24:45;;;;;;;25.10;18.08;;;11.80;99.90;;;;;;4935364;29;20032;-74
2021/09/06 02:27:11;;;;;;;20.63;17.23;;;11.80;99.90;;;;;;4936522;29;20067;-74
2021/09/06 02:29:36;;;;;;;22.38;17.92;;;11.80;99.90;;;;;;4934710;29;20046;-74
2021/09/06 02:32:02;;;;;;;23.45;17.70;;;11.80;99.90;;;;;;4934946;29;20023;-73
2021/09/06 02:34:28;;;;;;;26.88;18.25;;;11.80;99.90;;;;;;4936579;29;20016;-73
2021/09/06 02:36:53;;;;;;;19.33;16.50;;;11.80;99.90;;;;;;4935536;29;20464;-73
2021/09/06 02:39:19;;;;;;;22.17;18.40;;;11.70;99.90;;;;;;4935067;29;20062;-74
2021/09/06 02:41:44;;;;;;;24.27;18.45;;;11.70;99.90;;;;;;4934814;29;20020;-73
2021/09/06 02:44:10;;;;;;;22.85;17.75;;;11.70;99.90;;;;;;4935682;29;20032;-73
2021/09/06 02:46:36;;;;;;;22.95;18.27;;;11.70;99.90;;;;;;4934986;29;20087;-74
2021/09/06 02:49:01;;;;;;;25.25;17.27;;;11.70;99.90;;;;;;4935052;29;20071;-74
2021/09/06 02:51:27;;;;;;;18.58;16.55;;;11.60;99.90;;;;;;4934060;29;20122;-74
2021/09/06 02:53:53;;;;;;;20.98;17.60;;;11.60;99.90;;;;;;4935812;29;20019;-73
2021/09/06 02:56:18;;;;;;;25.13;18.05;;;11.60;99.90;;;;;;4935076;29;20040;-73
2021/09/06 02:58:44;;;;;;;22.23;18.35;;;11.60;99.90;;;;;;4934211;29;20381;-74
2021/09/06 03:01:09;;;;;;;21.98;17.63;;;11.60;99.90;;;;;;4934662;29;20023;-73
2021/09/06 03:03:35;;;;;;;23.10;16.83;;;11.60;99.90;;;;;;4936217;29;20491;-76
2021/09/06 03:06:00;;;;;;;22.67;17.85;;;11.60;99.90;;;;;;4934859;29;20048;-72
2021/09/06 03:08:26;;;;;;;18.73;16.55;;;11.60;99.90;;;;;;4935768;29;20050;-74
2021/09/06 03:10:52;;;;;;;19.38;17.13;;;11.60;99.90;;;;;;4934209;29;20075;-75
2021/09/06 03:13:17;;;;;;;25.42;17.98;;;11.60;99.90;;;;;;4934162;29;20034;-73
2021/09/06 03:15:43;;;;;;;21.48;17.52;;;11.60;99.90;;;;;;4934199;29;20024;-74
2021/09/06 03:18:08;;;;;;;21.55;16.52;;;11.60;99.90;;;;;;4934327;29;20361;-73
2021/09/06 03:20:34;;;;;;;20.25;17.25;;;11.50;99.90;;;;;;4935066;29;20028;-74
2021/09/06 03:22:59;;;;;;;19.25;15.38;;;11.50;99.90;;;;;;4935151;29;20375;-73
2021/09/06 03:25:25;;;;;;;20.15;16.33;;;11.50;99.90;;;;;;4934668;29;20087;-73
2021/09/06 03:27:50;;;;;;;18.63;16.10;;;11.50;99.90;;;;;;4935143;29;20102;-74
2021/09/06 03:30:16;;;;;;;22.27;15.60;;;11.50;99.90;;;;;;4934317;29;20054;-76
2021/09/06 03:32:41;;;;;;;20.30;16.00;;;11.50;99.90;;;;;;4934648;29;20066;-73
2021/09/06 03:35:07;;;;;;;24.85;16.40;;;11.40;99.90;;;;;;4934990;29;20056;-73
2021/09/06 03:37:33;;;;;;;21.80;16.73;;;11.40;99.90;;;;;;4934245;29;20027;-73
2021/09/06 03:39:59;;;;;;;22.40;17.23;;;11.40;99.90;;;;;;4934248;29;20032;-75
2021/09/06 03:42:24;;;;;;;20.73;17.08;;;11.40;99.90;;;;;;4934026;29;20051;-74
2021/09/06 03:44:50;;;;;;;21.98;16.33;;;11.40;99.90;;;;;;4935225;29;20023;-73
2021/09/06 03:47:15;;;;;;;19.73;16.17;;;11.40;99.90;;;;;;4932917;29;20020;-73
2021/09/06 03:49:41;;;;;;;25.20;18.48;;;11.40;99.90;;;;;;4934003;29;20082;-73
2021/09/06 03:52:06;;;;;;;20.50;16.88;;;11.30;99.90;;;;;;4935013;29;20027;-74
2021/09/06 03:54:32;;;;;;;28.70;17.77;;;11.40;99.90;;;;;;4934579;29;20024;-73
2021/09/06 03:56:57;;;;;;;23.70;17.05;;;11.30;99.90;;;;;;4933197;29;20365;-73
2021/09/06 03:59:23;;;;;;;22.10;16.52;;;11.30;99.90;;;;;;4933701;29;20068;-73
2021/09/06 04:01:48;;;;;;;21.67;16.83;;;11.30;99.90;;;;;;4933120;29;20122;-73
2021/09/06 04:04:14;;;;;;;21.63;17.08;;;11.30;99.90;;;;;;4933631;29;20027;-73
2021/09/06 04:06:39;;;;;;;22.17;17.73;;;11.30;99.90;;;;;;4933750;29;20024;-73
2021/09/06 04:09:05;;;;;;;20.23;16.42;;;11.30;99.90;;;;;;4932503;29;20035;-75
2021/09/06 04:11:30;;;;;;;22.70;17.30;;;11.30;99.90;;;;;;4933667;29;20026;-72
2021/09/06 04:13:56;;;;;;;23.40;16.83;;;11.30;99.90;;;;;;4933314;29;20063;-73
2021/09/06 04:16:21;;;;;;;20.80;16.63;;;11.30;99.90;;;;;;4932929;29;20110;-73
2021/09/06 04:18:47;;;;;;;19.80;16.00;;;11.30;99.90;;;;;;4934784;29;20088;-74
2021/09/06 04:21:12;;;;;;;18.73;15.75;;;11.30;99.90;;;;;;4934768;29;20080;-74
2021/09/06 04:23:39;;;;;;;17.55;15.52;;;11.30;99.90;;;;;;4934034;29;20038;-74
2021/09/06 04:26:05;;;;;;;21.92;16.25;;;11.20;99.90;;;;;;4933015;29;20020;-73
2021/09/06 04:28:31;;;;;;;20.75;16.33;;;11.20;99.90;;;;;;4933779;29;20027;-73
2021/09/06 04:30:56;;;;;;;19.25;15.70;;;11.20;99.90;;;;;;4932250;29;20023;-74
2021/09/06 04:33:23;;;;;;;18.95;15.35;;;11.20;99.90;;;;;;4933484;29;20026;-73
2021/09/06 04:35:48;;;;;;;19.92;15.70;;;11.20;99.90;;;;;;4932344;29;20110;-73
2021/09/06 04:38:15;;;;;;;17.35;14.55;;;11.20;99.90;;;;;;4934810;29;20048;-74
2021/09/06 04:40:41;;;;;;;19.02;15.98;;;11.20;99.90;;;;;;4934580;29;20088;-73
2021/09/06 04:43:06;;;;;;;20.77;15.38;;;11.10;99.90;;;;;;4932386;29;20020;-73
2021/09/06 04:45:32;;;;;;;21.80;15.43;;;11.10;99.90;;;;;;4933666;29;20512;-72
2021/09/06 04:47:57;;;;;;;21.60;15.02;;;11.10;99.90;;;;;;4932992;29;20028;-72
2021/09/06 04:50:23;;;;;;;18.98;15.50;;;11.10;99.90;;;;;;4932421;29;20028;-72
2021/09/06 04:52:48;;;;;;;21.00;14.75;;;11.10;99.90;;;;;;4933191;29;20027;-72
2021/09/06 04:55:14;;;;;;;23.67;15.07;;;11.10;99.90;;;;;;4934349;29;20898;-73
2021/09/06 04:57:39;;;;;;;24.27;15.57;;;11.10;99.90;;;;;;4932809;29;20026;-73
2021/09/06 05:00:06;;;;;;;20.95;14.68;;;11.10;99.90;;;;;;4934187;29;20102;-72
2021/09/06 05:02:31;;;;;;;21.77;15.50;;;11.10;99.90;;;;;;4932761;29;20067;-73
2021/09/06 05:04:57;;;;;;;17.83;14.52;;;11.10;99.90;;;;;;4933416;29;20048;-73
2021/09/06 05:07:22;;;;;;;22.13;14.60;;;11.10;99.90;;;;;;4933422;29;20031;-73
2021/09/06 05:09:48;;;;;;;20.35;15.15;;;11.10;99.90;;;;;;4932686;29;20035;-73
2021/09/06 05:12:14;;;;;;;19.45;15.02;;;11.10;99.90;;;;;;4934760;29;20038;-73
2021/09/06 05:14:39;;;;;;;20.55;16.75;;;11.10;99.90;;;;;;4936614;29;20019;-72
2021/09/06 05:17:05;;;;;;;19.00;15.65;;;11.10;99.90;;;;;;4936011;29;20420;-73
2021/09/06 05:19:30;;;;;;;20.90;16.70;;;11.20;99.90;;;;;;4935997;29;20043;-72
2021/09/06 05:21:56;;;;;;;20.38;15.73;;;11.20;99.90;;;;;;4936257;29;20031;-73
2021/09/06 05:24:21;;;;;;;17.60;15.20;;;11.10;99.90;;;;;;4936507;29;20028;-74
2021/09/06 05:26:47;;;;;;;17.83;15.20;;;11.20;99.90;;;;;;4935411;29;20473;-72
2021/09/06 05:29:13;;;;;;;22.08;16.52;;;11.20;99.90;;;;;;4936182;29;20051;-74
2021/09/06 05:31:38;;;;;;;20.85;16.75;;;11.20;99.90;;;;;;4940093;29;20035;-73
2021/09/06 05:34:04;;;;;;;20.00;16.98;;;11.20;99.90;;;;;;4950523;29;20031;-73
2021/09/06 05:36:29;;;;;;;19.17;16.35;;;11.20;99.90;;;;;;4945649;29;20476;-73
2021/09/06 05:38:55;;;;;;;18.25;15.15;;;11.30;99.90;;;;;;4952710;29;20038;-73
2021/09/06 05:41:21;;;;;;;18.00;15.90;;;11.30;99.90;;;;;;4954835;29;20059;-74
2021/09/06 05:43:48;;;;;;;21.52;17.42;;;11.30;99.90;;;;;;4956208;28;20507;-73
2021/09/06 05:46:14;;;;;;;17.83;15.77;;;11.40;99.90;;;;;;4954440;29;20030;-72
2021/09/06 05:48:39;;;;;;;24.80;17.63;;;11.40;99.90;;;;;;4955586;29;20031;-73
2021/09/06 05:51:05;;;;;;;21.27;15.98;;;11.40;99.90;;;;;;4953867;29;20026;-73
2021/09/06 05:53:30;;;;;;;21.40;17.70;;;11.50;99.90;;;;;;4937504;28;20091;-73
2021/09/06 05:55:56;;;;;;;21.30;16.92;;;11.50;99.90;;;;;;4948662;29;20039;-73
2021/09/06 05:58:21;;;;;;;20.58;17.77;;;11.50;99.90;;;;;;4950272;28;20039;-69
2021/09/06 06:00:47;;;;;;;23.38;18.67;;;11.60;99.90;;;;;;4943475;28;20079;-71
2021/09/06 06:03:13;;;;;;;25.80;20.50;;;11.60;99.90;;;;;;4954413;28;20554;-70
2021/09/06 06:05:38;;;;;;;21.05;17.10;;;11.70;99.90;;;;;;4938468;28;20043;-70
2021/09/06 06:08:04;;;;;;;25.45;18.95;;;11.80;99.90;;;;;;4952836;29;20077;-70
2021/09/06 06:10:29;;;;;;;20.98;17.90;;;11.90;99.90;;;;;;4954431;28;20114;-82
2021/09/06 06:12:55;;;;;;;23.80;18.70;;;12.00;99.90;;;;;;4952140;29;20027;-72
2021/09/06 06:15:21;;;;;;;21.80;18.00;;;12.00;99.90;;;;;;4936794;29;20476;-83
2021/09/06 06:17:46;;;;;;;22.63;19.23;;;12.10;99.90;;;;;;4948293;29;20043;-78
2021/09/06 06:20:12;;;;;;;23.23;19.60;;;12.20;99.90;;;;;;4937426;29;20078;-79
2021/09/06 06:22:38;;;;;;;25.08;20.08;;;12.20;99.90;;;;;;4950083;28;20479;-91
2021/09/06 06:25:04;;;;;;;23.90;19.00;;;12.30;99.90;;;;;;4960428;28;20027;-72
2021/09/06 06:27:30;;;;;;;25.20;19.38;;;12.40;99.90;;;;;;4956822;28;20237;-90
2021/09/06 06:29:55;;;;;;;26.70;20.50;;;12.50;99.90;;;;;;4955917;28;20131;-89
2021/09/06 06:32:21;;;;;;;28.95;21.63;;;12.60;99.90;;;;;;4961836;28;20023;-68
2021/09/06 06:34:46;;;;;;;26.90;21.52;;;12.70;99.90;;;;;;4969055;28;20077;-77
2021/09/06 06:37:13;;;;;;;25.23;20.15;;;12.80;99.90;;;;;;4954962;29;20479;-92
2021/09/06 06:39:38;;;;;;;24.38;19.27;;;12.90;99.90;;;;;;4956614;28;20086;-90
2021/09/06 06:42:04;;;;;;;24.27;19.85;;;13.00;99.90;;;;;;4956064;28;20263;-87
2021/09/06 06:44:30;;;;;;;23.92;19.27;;;13.10;99.90;;;;;;4955268;28;20539;-69
2021/09/06 06:46:56;;;;;;;25.35;18.80;;;13.10;99.90;;;;;;4953336;29;20517;-71
2021/09/06 06:49:21;;;;;;;23.75;19.17;;;13.20;99.90;;;;;;4952521;28;20118;-68
2021/09/06 06:51:47;;;;;;;26.13;20.40;;;13.20;99.90;;;;;;4939039;28;20055;-81
2021/09/06 06:54:14;;;;;;;25.58;19.58;;;13.30;99.90;;;;;;4937670;29;20024;-81
2021/09/06 06:56:40;;;;;;;22.77;18.92;;;13.40;99.90;;;;;;4954260;29;20032;-89
2021/09/06 06:59:06;;;;;;;22.30;17.27;;;13.50;99.90;;;;;;4953041;28;20034;-86
2021/09/06 07:01:31;;;;;;;25.65;19.92;;;13.50;99.90;;;;;;4942959;28;20365;-89
2021/09/06 07:03:57;;;;;;;22.95;19.75;;;13.60;99.90;;;;;;4959023;28;20037;-69
2021/09/06 07:06:25;;;;;;;27.00;20.23;;;13.70;99.90;;;;;;4947332;29;20135;-76
2021/09/06 07:08:51;;;;;;;26.65;21.30;;;13.80;99.90;;;;;;4940265;29;20032;-81
2021/09/06 07:11:17;;;;;;;27.55;21.00;;;13.90;99.90;;;;;;4947729;29;20078;-77
2021/09/06 07:13:42;;;;;;;27.08;21.02;;;14.00;99.90;;;;;;4947867;29;20062;-81
2021/09/06 07:16:09;;;;;;;23.98;19.67;;;14.10;99.90;;;;;;4942617;29;20024;-85
2021/09/06 07:18:35;;;;;;;22.38;19.23;;;14.20;99.90;;;;;;4940804;29;20034;-91
2021/09/06 07:21:02;;;;;;;33.42;21.90;;;14.30;99.90;;;;;;4953767;29;20488;-83
2021/09/06 07:23:27;;;;;;;25.92;20.20;;;14.30;99.90;;;;;;4954149;28;20039;-73
2021/09/06 07:25:53;;;;;;;25.35;19.92;;;14.40;99.90;;;;;;4947827;28;20024;-81
2021/09/06 07:28:18;;;;;;;23.60;19.80;;;14.50;99.90;;;;;;4953466;29;20035;-91
2021/09/06 07:30:44;;;;;;;24.92;20.40;;;14.60;99.90;;;;;;4942940;28;20476;-73
2021/09/06 07:33:09;;;;;;;24.17;18.52;;;14.60;99.90;;;;;;4950053;29;20053;-70
2021/09/06 07:35:35;;;;;;;22.83;17.85;;;14.70;99.90;;;;;;4938776;28;20035;-72
2021/09/06 07:38:00;;;;;;;22.30;18.80;;;14.70;99.90;;;;;;4947557;29;20090;-72
2021/09/06 07:40:26;;;;;;;22.88;19.17;;;14.80;99.90;;;;;;4934173;28;20055;-71
2021/09/06 07:42:52;;;;;;;24.83;19.75;;;14.90;99.90;;;;;;4934947;29;20035;-72
2021/09/06 07:45:17;;;;;;;24.58;19.85;;;15.00;99.90;;;;;;4935694;29;20027;-72
2021/09/06 07:47:43;;;;;;;24.65;18.80;;;15.10;99.90;;;;;;4933591;29;20119;-72
2021/09/06 07:50:11;;;;;;;23.73;19.13;;;15.20;99.90;;;;;;4934033;29;20031;-72
2021/09/06 07:52:38;;;;;;;21.58;18.75;;;15.40;99.90;;;;;;4934676;29;20026;-70
2021/09/06 07:55:06;;;;;;;22.88;19.80;;;15.40;99.90;;;;;;4934609;29;20083;-70
2021/09/06 07:57:33;;;;;;;23.48;18.30;;;15.50;99.90;;;;;;4935107;29;20042;-71
2021/09/06 07:59:58;;;;;;;21.98;17.90;;;15.60;99.90;;;;;;4934366;29;20135;-70
2021/09/06 08:02:24;;;;;;;19.17;16.95;;;15.70;99.90;;;;;;4933987;29;20455;-71
2021/09/06 08:04:49;;;;;;;19.67;16.17;;;15.80;99.90;;;;;;4934592;29;20500;-71
2021/09/06 08:07:15;;;;;;;21.88;17.45;;;15.90;99.90;;;;;;4934215;29;20028;-70
2021/09/06 08:09:41;;;;;;;22.45;17.42;;;16.00;99.90;;;;;;4934821;29;20027;-70
2021/09/06 08:12:07;;;;;;;20.77;16.75;;;16.00;99.90;;;;;;4934812;29;20039;-71
2021/09/06 08:14:34;;;;;;;22.02;17.90;;;16.10;99.90;;;;;;4934915;29;20031;-87
2021/09/06 08:16:59;;;;;;;19.58;17.48;;;16.20;99.90;;;;;;4934936;29;20024;-77
2021/09/06 08:19:27;;;;;;;21.52;17.40;;;16.40;99.90;;;;;;4934290;29;20380;-81
2021/09/06 08:21:53;;;;;;;21.15;17.75;;;16.50;99.90;;;;;;4934172;29;20023;-72
2021/09/06 08:24:19;;;;;;;21.95;17.52;;;16.50;99.90;;;;;;4935326;29;20055;-81
2021/09/06 08:26:45;;;;;;;21.58;18.25;;;16.60;99.90;;;;;;4934800;29;20059;-75
2021/09/06 08:29:10;;;;;;;21.55;18.42;;;16.60;99.90;;;;;;4932911;29;20036;-74
2021/09/06 08:31:37;;;;;;;18.60;16.33;;;16.70;99.90;;;;;;4935234;29;20551;-79
2021/09/06 08:34:02;;;;;;;18.25;14.55;;;16.80;99.90;;;;;;4933476;29;20039;-71
2021/09/06 08:36:28;;;;;;;18.60;16.35;;;16.90;99.90;;;;;;4934527;29;20123;-85
2021/09/06 08:38:53;;;;;;;23.30;18.98;;;16.90;99.90;;;;;;4933775;29;20027;-74
2021/09/06 08:41:19;;;;;;;27.08;19.20;;;17.00;99.90;;;;;;4934403;29;20028;-79
2021/09/06 08:43:45;;;;;;;22.55;18.13;;;17.00;99.90;;;;;;4934548;29;20034;-83
2021/09/06 08:46:10;;;;;;;19.33;16.85;;;17.10;99.90;;;;;;4935262;29;20016;-87
2021/09/06 08:48:36;;;;;;;20.33;16.83;;;17.20;99.90;;;;;;4937803;29;20064;-88
2021/09/06 08:51:02;;;;;;;17.83;14.10;;;17.30;99.90;;;;;;4937972;29;20024;-87
2021/09/06 08:53:29;;;;;;;19.33;15.07;;;17.50;99.90;;;;;;4939006;29;20035;-83
2021/09/06 08:55:55;;;;;;;17.90;15.52;;;17.50;99.90;;;;;;4937996;29;20020;-87
2021/09/06 08:58:21;;;;;;;18.52;15.18;;;17.60;99.90;;;;;;4937763;29;20020;-79
2021/09/06 09:00:49;;;;;;;16.85;14.25;;;17.70;99.90;;;;;;4938511;29;20543;-80
2021/09/06 09:03:15;;;;;;;17.38;14.43;;;17.80;99.90;;;;;;4937807;29;20032;-80
2021/09/06 09:06:01;;;;;;;19.38;14.95;;;17.90;99.90;;;;;;4938135;29;20167;-81
2021/09/06 09:08:27;;;;;;;17.23;14.82;;;18.00;99.90;;;;;;4938573;29;20087;-80
2021/09/06 09:10:59;;;;;;;19.25;15.90;;;18.00;99.90;;;;;;4937403;29;20381;-83
2021/09/06 09:13:28;;;;;;;21.40;15.20;;;18.10;99.90;;;;;;4938316;29;20028;-76
2021/09/06 09:15:55;;;;;;;23.05;14.77;;;18.20;99.90;;;;;;4936537;29;20031;-77
2021/09/06 09:18:30;;;;;;;17.17;13.95;;;18.30;99.90;;;;;;4937771;29;20032;-79
2021/09/06 09:21:07;;;;;;;17.17;14.60;;;18.20;99.90;;;;;;4937829;29;20023;-74
2021/09/06 09:23:44;;;;;;;15.55;13.52;;;18.20;99.90;;;;;;4936955;29;20055;-81
2021/09/06 09:26:10;;;;;;;15.23;13.63;;;18.20;99.90;;;;;;4937377;29;20032;-82
2021/09/06 09:28:45;;;;;;;18.15;14.43;;;18.20;99.90;;;;;;4938039;29;20539;-75
2021/09/06 09:31:18;;;;;;;17.58;14.65;;;18.30;99.90;;;;;;4936607;29;20469;-81
2021/09/06 09:33:47;;;;;;;16.25;13.73;;;18.40;99.90;;;;;;4937698;29;20039;-78
2021/09/06 09:36:25;;;;;;;19.65;15.80;;;18.40;99.90;;;;;;4937694;29;20490;-77
2021/09/06 09:38:50;;;;;;;16.00;13.85;;;18.50;99.90;;;;;;4936969;29;20038;-80
2021/09/06 09:41:16;;;;;;;16.55;13.70;;;18.50;99.90;;;;;;4936312;29;20020;-82
2021/09/06 09:43:42;;;;;;;17.88;13.45;;;18.60;99.90;;;;;;4937352;29;20381;-73
2021/09/06 09:46:08;;;;;;;17.35;14.68;;;18.60;99.90;;;;;;4935534;29;20023;-72
2021/09/06 09:48:34;;;;;;;16.90;14.38;;;18.70;99.90;;;;;;4937737;29;20039;-70
2021/09/06 09:51:00;;;;;;;18.25;14.70;;;18.70;99.90;;;;;;4935856;29;20501;-71
2021/09/06 09:53:26;;;;;;;17.30;14.50;;;18.80;99.90;;;;;;4936789;29;20118;-71
2021/09/06 09:55:52;;;;;;;17.13;13.73;;;18.80;99.90;;;;;;4936963;29;20055;-72
2021/09/06 09:58:18;;;;;;;14.30;12.02;;;18.90;99.90;;;;;;4937069;29;20052;-71
2021/09/06 10:00:47;;;;;;;14.82;10.52;;;19.00;99.90;;;;;;4936338;29;20033;-71
2021/09/06 10:03:15;;;;;;;12.80;9.77;;;19.00;99.90;;;;;;4936948;29;20107;-74
2021/09/06 10:05:42;;;;;;;10.68;9.00;;;19.10;99.90;;;;;;4933001;29;20052;-71
2021/09/06 10:08:12;;;;;;;10.93;8.88;;;19.10;99.90;;;;;;4935492;29;20110;-78
2021/09/06 10:10:40;;;;;;;11.30;8.80;;;19.20;99.90;;;;;;4937690;29;20028;-81
2021/09/06 10:13:14;;;;;;;11.85;10.00;;;19.20;99.90;;;;;;4936514;29;20472;-78
2021/09/06 10:15:41;;;;;;;12.00;9.30;;;19.30;99.90;;;;;;4936837;29;20023;-76
2021/09/06 10:18:17;;;;;;;11.13;9.60;;;19.40;99.90;;;;;;4936211;29;20032;-71
2021/09/06 10:20:43;;;;;;;12.07;9.73;;;19.40;99.90;;;;;;4936623;29;20028;-85
2021/09/06 10:23:11;;;;;;;11.50;9.90;;;19.60;99.90;;;;;;4936117;29;20027;-81
2021/09/06 10:25:40;;;;;;;12.07;9.60;;;19.70;99.90;;;;;;4935290;29;20035;-88
2021/09/06 10:28:08;;;;;;;11.38;9.52;;;19.80;99.90;;;;;;4936932;29;20483;-87
2021/09/06 10:30:50;;;;;;;10.60;8.50;;;19.90;99.90;;;;;;4937205;29;20046;-74
2021/09/06 10:33:34;;;;;;;9.75;8.13;;;20.00;99.90;;;;;;4935063;29;20059;-84
2021/09/06 10:36:11;;;;;;;10.85;9.32;;;20.10;99.90;;;;;;4936648;29;20225;-85
2021/09/06 10:38:41;;;;;;;10.23;8.88;;;20.30;99.90;;;;;;4936071;29;20027;-82
2021/09/06 10:41:16;;;;;;;10.23;8.30;;;20.30;99.90;;;;;;4936338;29;20027;-87
2021/09/06 10:44:07;;;;;;;10.20;7.90;;;20.40;99.90;;;;;;4935930;29;20055;-76
2021/09/06 10:46:33;;;;;;;9.07;8.13;;;20.60;99.90;;;;;;4936784;29;20491;-82
2021/09/06 10:49:04;;;;;;;10.43;8.68;;;20.70;99.90;;;;;;4935391;29;20032;-87
2021/09/06 10:51:34;;;;;;;10.35;8.50;;;20.80;99.90;;;;;;4936770;29;20544;-81
2021/09/06 10:54:02;;;;;;;9.90;8.50;;;20.80;99.90;;;;;;4935965;29;20032;-83
2021/09/06 10:56:29;;;;;;;9.50;7.55;;;20.90;99.90;;;;;;4935370;29;20016;-84
2021/09/06 10:58:55;;;;;;;9.13;7.95;;;20.90;99.90;;;;;;4935892;29;20038;-77
2021/09/06 11:01:21;;;;;;;9.57;7.20;;;20.90;99.90;;;;;;4935501;29;20024;-86
2021/09/06 11:03:49;;;;;;;16.38;7.65;;;20.90;99.90;;;;;;4935371;29;20032;-77
2021/09/06 11:06:14;;;;;;;8.32;6.93;;;21.00;99.90;;;;;;4936107;29;20047;-81
2021/09/06 11:08:40;;;;;;;10.05;7.45;;;21.00;99.90;;;;;;4936045;29;20048;-73
2021/09/06 11:11:08;;;;;;;9.95;8.20;;;21.00;99.90;;;;;;4935555;29;20020;-81
2021/09/06 11:13:46;;;;;;;7.93;7.15;;;21.00;99.90;;;;;;4936513;29;20532;-84
2021/09/06 11:16:14;;;;;;;11.38;7.90;;;20.90;99.90;;;;;;4934516;29;20510;-78
2021/09/06 11:18:43;;;;;;;7.82;7.03;;;20.90;99.90;;;;;;4936282;29;20093;-78
2021/09/06 11:21:09;;;;;;;8.93;6.53;;;20.90;99.90;;;;;;4934991;29;20023;-81
2021/09/06 11:23:46;;;;;;;8.95;6.80;;;20.80;99.90;;;;;;4934713;29;20024;-86
2021/09/06 11:26:28;;;;;;;10.20;7.10;;;20.70;99.90;;;;;;4934889;29;20027;-86
2021/09/06 11:28:54;;;;;;;7.70;6.65;;;20.70;99.90;;;;;;4935326;29;20063;-78
2021/09/06 11:31:22;;;;;;;8.73;7.55;;;20.70;99.90;;;;;;4935020;29;20485;-88
2021/09/06 11:34:04;;;;;;;8.20;7.00;;;20.70;99.90;;;;;;4935828;29;20020;-77
2021/09/06 11:36:30;;;;;;;8.32;7.45;;;20.80;99.90;;;;;;4935730;29;20112;-81
2021/09/06 11:38:56;;;;;;;8.07;7.28;;;20.80;99.90;;;;;;4934305;29;20028;-89
2021/09/06 11:41:22;;;;;;;9.40;7.47;;;20.90;99.90;;;;;;4935894;29;20038;-85
2021/09/06 11:43:48;;;;;;;8.88;7.57;;;21.00;99.90;;;;;;4935340;29;20024;-82
2021/09/06 11:46:16;;;;;;;8.43;7.43;;;21.10;99.90;;;;;;4935409;29;20102;-77
2021/09/06 11:48:48;;;;;;;9.68;7.85;;;21.30;99.90;;;;;;4935294;29;20050;-72
2021/09/06 11:51:15;;;;;;;9.05;7.60;;;21.30;99.90;;;;;;4934510;29;20043;-72
2021/09/06 11:53:40;;;;;;;9.20;8.20;;;21.50;99.90;;;;;;4935210;29;20106;-72
2021/09/06 11:56:14;;;;;;;9.45;7.72;;;21.60;99.90;;;;;;4934996;29;20155;-73
2021/09/06 11:58:45;;;;;;;10.68;7.88;;;21.60;99.90;;;;;;4933525;29;20028;-74
2021/09/06 12:01:14;;;;;;;9.15;7.65;;;21.70;99.70;;;;;;4934458;29;20027;-83
2021/09/06 12:03:40;;;;;;;11.43;7.90;;;21.80;99.90;;;;;;4934518;29;20110;-88
2021/09/06 12:06:10;;;;;;;9.70;8.65;;;21.90;99.90;;;;;;4933642;29;20094;-81
2021/09/06 12:08:38;;;;;;;9.73;8.30;;;22.00;99.90;;;;;;4935997;29;20039;-82
2021/09/06 12:11:08;;;;;;;10.88;9.13;;;22.00;99.90;;;;;;4934803;29;20099;-88
2021/09/06 12:13:36;;;;;;;10.40;9.07;;;22.10;99.90;;;;;;4934345;29;20480;-82
2021/09/06 12:16:04;;;;;;;11.93;9.70;;;22.20;99.90;;;;;;4935195;29;20034;-85
2021/09/06 12:18:34;;;;;;;12.05;9.80;;;22.40;99.90;;;;;;4935160;29;20051;-87
2021/09/06 12:21:02;;;;;;;10.60;9.50;;;22.70;99.90;;;;;;4936398;29;20034;-82
2021/09/06 12:23:32;;;;;;;11.27;8.95;;;22.90;99.90;;;;;;4940049;29;20028;-88
2021/09/06 12:25:58;;;;;;;16.80;9.93;;;23.20;99.90;;;;;;4938726;29;20089;-86
2021/09/06 12:28:23;;;;;;;11.07;9.88;;;23.30;99.90;;;;;;4939083;29;20392;-85